createdAt,value
2022-10-12T00:02:14.880Z,99900.41
2022-10-12T00:04:43.774Z,99900.75
2022-10-12T00:07:13.944Z,99899.91
2022-10-12T00:09:42.265Z,99896.97
2022-10-12T00:12:10.498Z,99900.34
2022-10-12T00:14:39.753Z,99900.53
2022-10-12T00:17:09.833Z,99887.78
2022-10-12T00:19:39.464Z,99896.69
2022-10-12T00:22:08.311Z,99893.69
2022-10-12T00:24:42.953Z,99902.13
2022-10-12T00:27:12.123Z,99902.44
2022-10-12T00:29:40.397Z,99902.19
2022-10-12T00:32:09.624Z,99906.69
2022-10-12T00:34:38.180Z,99908.78
2022-10-12T00:37:06.928Z,99908.25
2022-10-12T00:39:39.700Z,99907.06
2022-10-12T00:42:08.106Z,99908.59
2022-10-12T00:44:40.856Z,99917.47
2022-10-12T00:47:18.803Z,99914.31
2022-10-12T00:49:53.035Z,99905.13
2022-10-12T00:52:24.782Z,99910.06
2022-10-12T00:54:59.128Z,99905.81
2022-10-12T00:57:27.768Z,99906.88
2022-10-12T00:59:59.864Z,99906.88
2022-10-12T01:02:31.509Z,99906.88
2022-10-12T01:05:02.368Z,99901.22
2022-10-12T01:07:30.554Z,99906.63
2022-10-12T01:10:02.316Z,99909.66
2022-10-12T01:12:31.019Z,99906.09
2022-10-12T01:14:59.756Z,99911.13
2022-10-12T01:17:39.794Z,99908.44
2022-10-12T01:20:37.469Z,99913.44
2022-10-12T01:23:35.757Z,99914.84
2022-10-12T01:26:38.870Z,99914.16
2022-10-12T01:29:24.697Z,99910.81
2022-10-12T01:32:00.561Z,99905.69
2022-10-12T01:34:36.298Z,99906.59
2022-10-12T01:37:12.685Z,99901.84
2022-10-12T01:39:47.438Z,99905.41
2022-10-12T01:42:21.876Z,99899.47
2022-10-12T01:44:50.435Z,99901.09
2022-10-12T01:47:21.159Z,99903.25
2022-10-12T01:49:49.891Z,99899.53
2022-10-12T01:52:27.408Z,99892.66
2022-10-12T01:55:10.804Z,99899.44
2022-10-12T01:57:48.744Z,99889.88
2022-10-12T02:00:19.943Z,99884.50
2022-10-12T02:03:00.045Z,99891.44
2022-10-12T02:05:37.227Z,99881.03
2022-10-12T02:08:15.615Z,99884.56
2022-10-12T02:10:48.876Z,99877.44
2022-10-12T02:13:20.920Z,99879.75
2022-10-12T02:15:50.299Z,99879.84
2022-10-12T02:18:23.029Z,99871.69
2022-10-12T02:20:56.187Z,99878.50
2022-10-12T02:23:27.044Z,99873.81
2022-10-12T02:25:57.833Z,99869.59
2022-10-12T02:28:31.398Z,99868.69
2022-10-12T02:31:04.313Z,99867.03
2022-10-12T02:33:41.979Z,99868.44
2022-10-12T02:36:14.705Z,99869.91
2022-10-12T02:38:48.681Z,99870.72
2022-10-12T02:41:23.049Z,99863.97
2022-10-12T02:43:55.954Z,99859.75
2022-10-12T02:46:27.262Z,99855.09
2022-10-12T02:48:59.266Z,99859.47
2022-10-12T02:51:30.312Z,99849.81
2022-10-12T02:53:58.680Z,99856.38
2022-10-12T02:56:27.353Z,99855.34
2022-10-12T02:58:55.992Z,99851.72
2022-10-12T03:01:24.353Z,99858.97
2022-10-12T03:03:53.020Z,99847.41
2022-10-12T03:06:24.173Z,99857.09
2022-10-12T03:08:55.560Z,99856.84
2022-10-12T03:11:24.162Z,99850.53
2022-10-12T03:13:54.098Z,99852.41
2022-10-12T03:16:22.869Z,99852.41
2022-10-12T03:18:51.908Z,99844.31
2022-10-12T03:21:21.537Z,99846.00
2022-10-12T03:23:51.378Z,99848.31
2022-10-12T03:26:20.117Z,99849.84
2022-10-12T03:28:48.556Z,99850.75
2022-10-12T03:31:17.199Z,99843.44
2022-10-12T03:33:47.191Z,99842.09
2022-10-12T03:36:16.109Z,99831.53
2022-10-12T03:38:44.546Z,99846.13
2022-10-12T03:41:14.356Z,99845.09
2022-10-12T03:43:42.872Z,99850.47
2022-10-12T03:46:11.088Z,99855.72
2022-10-12T03:48:39.415Z,99854.72
2022-10-12T03:51:08.135Z,99852.22
2022-10-12T03:53:40.688Z,99852.03
2022-10-12T03:56:14.499Z,99853.50
2022-10-12T03:58:42.623Z,99855.16
2022-10-12T04:01:10.984Z,99855.16
2022-10-12T04:03:39.384Z,99850.63
2022-10-12T04:06:08.834Z,99839.72
2022-10-12T04:08:40.165Z,99842.50
2022-10-12T04:11:08.937Z,99833.03
2022-10-12T04:13:38.851Z,99845.38
2022-10-12T04:16:09.168Z,99841.94
2022-10-12T04:18:38.302Z,99840.34
2022-10-12T04:21:11.180Z,99844.97
2022-10-12T04:23:41.129Z,99851.09
2022-10-12T04:26:09.664Z,99847.22
2022-10-12T04:28:40.295Z,99846.19
2022-10-12T04:31:08.841Z,99843.72
2022-10-12T04:33:37.328Z,99850.75
2022-10-12T04:36:06.066Z,99844.88
2022-10-12T04:38:34.428Z,99849.94
2022-10-12T04:41:02.641Z,99846.41
2022-10-12T04:43:30.957Z,99849.94
2022-10-12T04:46:02.025Z,99852.13
2022-10-12T04:48:30.504Z,99850.91
2022-10-12T04:51:01.261Z,99847.22
2022-10-12T04:53:29.771Z,99858.63
2022-10-12T04:55:58.119Z,99854.41
2022-10-12T04:58:26.352Z,99847.50
2022-10-12T05:00:54.732Z,99859.66
2022-10-12T05:03:25.286Z,99861.63
2022-10-12T05:05:53.902Z,99851.66
2022-10-12T05:08:22.097Z,99856.97
2022-10-12T05:10:50.631Z,99859.66
2022-10-12T05:13:19.081Z,99852.53
2022-10-12T05:15:47.445Z,99848.56
2022-10-12T05:18:15.690Z,99858.09
2022-10-12T05:20:45.963Z,99846.38
2022-10-12T05:23:14.424Z,99849.94
2022-10-12T05:25:45.191Z,99864.28
2022-10-12T05:28:15.361Z,99859.75
2022-10-12T05:30:45.945Z,99856.09
2022-10-12T05:33:15.427Z,99855.88
2022-10-12T05:35:48.744Z,99854.69
2022-10-12T05:38:19.467Z,99851.47
2022-10-12T05:40:48.398Z,99845.38
2022-10-12T05:43:17.622Z,99846.75
2022-10-12T05:45:48.016Z,99842.53
2022-10-12T05:48:16.377Z,99844.56
2022-10-12T05:50:46.128Z,99848.28
2022-10-12T05:53:15.306Z,99847.56
2022-10-12T05:55:53.492Z,99845.47
2022-10-12T05:58:22.261Z,99841.03
2022-10-12T06:00:50.650Z,99844.56
2022-10-12T06:03:21.090Z,99845.47
2022-10-12T06:05:52.910Z,99838.69
2022-10-12T06:08:21.273Z,99850.88
2022-10-12T06:10:55.841Z,99839.19
2022-10-12T06:13:24.209Z,99843.09
2022-10-12T06:15:53.269Z,99840.00
2022-10-12T06:18:21.451Z,99839.09
2022-10-12T06:20:56.542Z,99838.56
2022-10-12T06:23:38.661Z,99835.50
2022-10-12T06:26:07.772Z,99844.97
2022-10-12T06:28:36.127Z,99842.00
2022-10-12T06:31:04.592Z,99846.78
2022-10-12T06:33:32.861Z,99842.19
2022-10-12T06:36:01.222Z,99842.06
2022-10-12T06:38:29.995Z,99838.34
2022-10-12T06:40:59.852Z,99831.50
2022-10-12T06:43:28.378Z,99838.66
2022-10-12T06:46:01.463Z,99847.88
2022-10-12T06:48:29.799Z,99840.41
2022-10-12T06:50:58.405Z,99842.81
2022-10-12T06:53:28.976Z,99850.31
2022-10-12T06:55:57.228Z,99854.00
2022-10-12T06:58:27.135Z,99850.75
2022-10-12T07:00:56.872Z,99859.00
2022-10-12T07:03:25.467Z,99855.44
2022-10-12T07:05:53.627Z,99851.91
2022-10-12T07:08:22.538Z,99849.94
2022-10-12T07:10:59.030Z,99842.00
2022-10-12T07:13:30.366Z,99848.91
2022-10-12T07:15:58.847Z,99846.81
2022-10-12T07:18:28.580Z,99852.38
2022-10-12T07:20:59.985Z,99848.84
2022-10-12T07:23:28.843Z,99852.66
2022-10-12T07:25:57.663Z,99856.66
2022-10-12T07:28:28.760Z,99859.22
2022-10-12T07:31:03.377Z,99856.84
2022-10-12T07:33:35.668Z,99856.66
2022-10-12T07:36:21.865Z,99858.09
2022-10-12T07:38:52.987Z,99858.19
2022-10-12T07:41:21.628Z,99864.16
2022-10-12T07:43:50.357Z,99856.03
2022-10-12T07:46:20.572Z,99855.66
2022-10-12T07:48:50.550Z,99864.00
2022-10-12T07:51:19.646Z,99862.63
2022-10-12T07:53:48.915Z,99869.66
2022-10-12T07:56:18.008Z,99868.56
2022-10-12T07:58:51.108Z,99876.03
2022-10-12T08:01:22.339Z,99868.38
2022-10-12T08:03:51.391Z,99864.50
2022-10-12T08:06:22.889Z,99870.00
2022-10-12T08:08:51.550Z,99874.66
2022-10-12T08:11:20.983Z,99868.84
2022-10-12T08:13:51.781Z,99874.69
2022-10-12T08:16:22.436Z,99869.78
2022-10-12T08:18:53.385Z,99871.25
2022-10-12T08:21:22.395Z,99872.84
2022-10-12T08:23:50.681Z,99869.75
2022-10-12T08:26:19.132Z,99860.28
2022-10-12T08:28:47.399Z,99862.03
2022-10-12T08:31:18.006Z,99860.34
2022-10-12T08:33:47.855Z,99861.56
2022-10-12T08:36:17.299Z,99862.72
2022-10-12T08:38:48.774Z,99855.69
2022-10-12T08:41:37.860Z,99853.88
2022-10-12T08:44:23.301Z,99853.00
2022-10-12T08:46:56.497Z,99857.13
2022-10-12T08:49:29.976Z,99853.13
2022-10-12T08:52:01.426Z,99857.31
2022-10-12T08:54:38.063Z,99847.31
2022-10-12T08:57:06.784Z,99849.50
2022-10-12T08:59:35.203Z,99851.00
2022-10-12T09:02:16.080Z,99850.72
2022-10-12T09:04:58.573Z,99844.25
2022-10-12T09:07:31.194Z,99840.88
2022-10-12T09:10:12.773Z,99837.78
2022-10-12T09:12:51.057Z,99836.25
2022-10-12T09:15:24.760Z,99835.47
2022-10-12T09:17:55.105Z,99834.22
2022-10-12T09:20:30.135Z,99840.75
2022-10-12T09:23:03.668Z,99836.09
2022-10-12T09:25:34.125Z,99833.28
2022-10-12T09:28:16.077Z,99824.13
2022-10-12T09:30:55.379Z,99825.31
2022-10-12T09:33:29.313Z,99814.03
2022-10-12T09:35:59.769Z,99823.00
2022-10-12T09:38:30.461Z,99816.94
2022-10-12T09:41:00.947Z,99810.56
2022-10-12T09:43:29.759Z,99805.50
2022-10-12T09:46:03.061Z,99803.03
2022-10-12T09:48:31.245Z,99803.41
2022-10-12T09:51:04.491Z,99796.78
2022-10-12T09:53:36.345Z,99795.28
2022-10-12T09:56:10.766Z,99794.19
2022-10-12T09:58:55.111Z,99795.38
2022-10-12T10:01:27.724Z,99803.78
2022-10-12T10:04:11.370Z,99784.44
2022-10-12T10:06:43.295Z,99788.91
2022-10-12T10:09:33.771Z,99784.66
2022-10-12T10:12:15.273Z,99785.31
2022-10-12T10:14:45.757Z,99787.25
2022-10-12T10:17:26.476Z,99790.78
2022-10-12T10:19:56.666Z,99782.88
2022-10-12T10:22:27.455Z,99792.97
2022-10-12T10:25:00.383Z,99800.13
2022-10-12T10:27:37.912Z,99791.47
2022-10-12T10:30:36.442Z,99794.78
2022-10-12T10:33:22.863Z,99793.13
2022-10-12T10:36:02.481Z,99794.88
2022-10-12T10:38:47.292Z,99785.09
2022-10-12T10:41:20.137Z,99778.00
2022-10-12T10:43:50.620Z,99775.69
2022-10-12T10:46:25.549Z,99778.97
2022-10-12T10:48:58.324Z,99774.72
2022-10-12T10:51:48.472Z,99774.84
2022-10-12T10:54:29.119Z,99770.59
2022-10-12T10:57:04.077Z,99767.09
2022-10-12T10:59:41.160Z,99766.03
2022-10-12T11:02:27.009Z,99765.38
2022-10-12T11:05:02.686Z,99758.66
2022-10-12T11:07:39.064Z,99758.44
2022-10-12T11:10:25.388Z,99751.06
2022-10-12T11:13:01.173Z,99756.63
2022-10-12T11:15:36.153Z,99746.47
2022-10-12T11:18:17.682Z,99748.91
2022-10-12T11:20:53.594Z,99751.66
2022-10-12T11:23:39.979Z,99746.97
2022-10-12T11:26:20.715Z,99741.31
2022-10-12T11:28:49.603Z,99742.13
2022-10-12T11:31:23.249Z,99744.63
2022-10-12T11:33:54.372Z,99735.09
2022-10-12T11:36:26.065Z,99739.34
2022-10-12T11:39:02.053Z,99731.72
2022-10-12T11:42:09.572Z,99734.00
2022-10-12T11:44:44.909Z,99731.75
2022-10-12T11:47:23.795Z,99732.06
2022-10-12T11:49:59.544Z,99728.63
2022-10-12T11:52:45.165Z,99718.19
2022-10-12T11:55:55.539Z,99713.31
2022-10-12T11:58:48.903Z,99711.06
2022-10-12T12:01:38.384Z,99704.91
2022-10-12T12:04:40.518Z,99708.59
2022-10-12T12:07:30.096Z,99704.69
2022-10-12T12:09:58.325Z,99704.31
2022-10-12T12:12:29.099Z,99704.66
2022-10-12T12:15:06.995Z,99697.19
2022-10-12T12:17:36.035Z,99706.50
2022-10-12T12:20:26.047Z,99700.06
2022-10-12T12:22:57.005Z,99696.09
2022-10-12T12:25:33.539Z,99694.41
2022-10-12T12:28:17.987Z,99704.25
2022-10-12T12:30:58.839Z,99696.38
2022-10-12T12:33:33.349Z,99690.16
2022-10-12T12:36:04.769Z,99694.91
2022-10-12T12:38:39.347Z,99696.03
2022-10-12T12:41:11.671Z,99694.88
2022-10-12T12:44:01.605Z,99700.72
2022-10-12T12:50:33.022Z,99695.78
2022-10-12T12:53:07.546Z,99688.50
2022-10-12T12:55:49.177Z,99684.84
2022-10-12T12:58:31.131Z,99683.25
2022-10-12T13:01:29.157Z,99686.84
2022-10-12T13:04:12.178Z,99682.50
2022-10-12T13:07:14.116Z,99686.50
2022-10-12T13:09:53.553Z,99683.91
2022-10-12T13:12:34.625Z,99681.69
2022-10-12T13:15:22.044Z,99684.53
2022-10-12T13:18:28.591Z,99676.28
2022-10-12T13:21:08.496Z,99674.94
2022-10-12T13:23:38.715Z,99669.78
2022-10-12T13:26:09.920Z,99668.16
2022-10-12T13:28:42.824Z,99663.66
2022-10-12T13:31:20.177Z,99673.25
2022-10-12T13:33:55.845Z,99671.91
2022-10-12T13:36:27.787Z,99667.88
2022-10-12T13:39:00.841Z,99670.31
2022-10-12T13:41:31.686Z,99658.44
2022-10-12T13:44:01.430Z,99667.06
2022-10-12T13:46:40.910Z,99662.69
2022-10-12T13:49:16.373Z,99653.97
2022-10-12T13:51:48.323Z,99658.38
2022-10-12T13:54:21.280Z,99652.88
2022-10-12T13:56:52.798Z,99655.13
2022-10-12T13:59:23.967Z,99649.53
2022-10-12T14:01:55.614Z,99645.97
2022-10-12T14:04:24.526Z,99641.38
2022-10-12T14:06:58.783Z,99652.84
2022-10-12T14:09:35.286Z,99645.50
2022-10-12T14:12:05.747Z,99637.53
2022-10-12T14:14:36.459Z,99644.44
2022-10-12T14:17:05.219Z,99644.91
2022-10-12T14:19:43.844Z,99638.91
2022-10-12T14:22:13.744Z,99633.53
2022-10-12T14:24:43.580Z,99640.31
2022-10-12T14:27:26.410Z,99640.16
2022-10-12T14:29:59.508Z,99635.25
2022-10-12T14:32:41.229Z,99621.69
2022-10-12T14:35:31.270Z,99624.94
2022-10-12T14:37:59.928Z,99629.16
2022-10-12T14:40:34.680Z,99623.06
2022-10-12T14:43:08.191Z,99615.78
2022-10-12T14:45:38.086Z,99610.56
2022-10-12T14:48:11.435Z,99605.47
2022-10-12T14:50:43.518Z,99613.25
2022-10-12T14:53:14.540Z,99604.25
2022-10-12T14:55:44.788Z,99590.41
2022-10-12T14:58:17.072Z,99590.09
2022-10-12T15:00:47.447Z,99604.78
2022-10-12T15:03:18.296Z,99596.91
2022-10-12T15:05:47.010Z,99593.53
2022-10-12T15:08:15.403Z,99590.78
2022-10-12T15:10:46.071Z,99595.91
2022-10-12T15:13:17.533Z,99595.03
2022-10-12T15:15:51.556Z,99600.28
2022-10-12T15:18:19.941Z,99595.34
2022-10-12T15:20:49.930Z,99601.25
2022-10-12T15:23:20.493Z,99606.22
2022-10-12T15:25:52.939Z,99609.88
2022-10-12T15:28:25.053Z,99607.53
2022-10-12T15:33:44.033Z,99603.69
2022-10-12T15:36:16.590Z,99603.13
2022-10-12T15:38:45.277Z,99603.41
2022-10-12T15:41:19.390Z,99600.13
2022-10-12T15:43:47.924Z,99597.19
2022-10-12T15:46:16.337Z,99594.72
2022-10-12T15:48:45.146Z,99592.38
2022-10-12T15:51:19.645Z,99591.81
2022-10-12T15:53:48.467Z,99595.03
2022-10-12T15:56:20.587Z,99585.69
2022-10-12T15:58:49.802Z,99574.16
2022-10-12T16:01:20.938Z,99568.25
2022-10-12T16:03:50.542Z,99565.63
2022-10-12T16:06:20.004Z,99563.53
2022-10-12T16:08:48.668Z,99558.66
2022-10-12T16:11:19.888Z,99545.00
2022-10-12T16:13:55.616Z,99551.19
2022-10-12T16:16:24.939Z,99549.13
2022-10-12T16:18:54.220Z,99552.09
2022-10-12T16:21:25.166Z,99557.53
2022-10-12T16:23:53.599Z,99561.19
2022-10-12T16:26:25.396Z,99554.22
2022-10-12T16:28:53.770Z,99558.66
2022-10-12T16:31:22.263Z,99570.03
2022-10-12T16:33:50.844Z,99566.03
2022-10-12T16:36:19.508Z,99572.63
2022-10-12T16:38:50.969Z,99566.22
2022-10-12T16:41:19.945Z,99567.28
2022-10-12T16:43:50.362Z,99566.69
2022-10-12T16:46:19.321Z,99563.94
2022-10-12T16:48:47.987Z,99564.97
2022-10-12T16:51:16.254Z,99552.94
2022-10-12T16:53:44.486Z,99558.47
2022-10-12T16:56:13.715Z,99560.75
2022-10-12T16:58:42.714Z,99569.31
2022-10-12T17:01:13.876Z,99567.75
2022-10-12T17:03:42.374Z,99573.72
2022-10-12T17:06:11.803Z,99575.66
2022-10-12T17:08:41.474Z,99576.16
2022-10-12T17:11:11.134Z,99574.56
2022-10-12T17:13:43.142Z,99573.22
2022-10-12T17:16:36.367Z,99572.94
2022-10-12T17:19:05.283Z,99569.66
2022-10-12T17:21:34.167Z,99578.44
2022-10-12T17:24:03.791Z,99580.34
2022-10-12T17:26:40.207Z,99578.69
2022-10-12T17:29:14.598Z,99585.03
2022-10-12T17:31:46.993Z,99580.34
2022-10-12T17:34:19.732Z,99587.72
2022-10-12T17:36:49.328Z,99595.69
2022-10-12T17:39:18.737Z,99594.41
2022-10-12T17:41:48.888Z,99597.84
2022-10-12T17:44:18.050Z,99597.50
2022-10-12T17:46:48.602Z,99587.50
2022-10-12T17:49:24.277Z,99595.31
2022-10-12T17:51:54.637Z,99595.88
2022-10-12T17:54:25.378Z,99598.75
2022-10-12T17:56:54.296Z,99596.31
2022-10-12T17:59:23.559Z,99588.94
2022-10-12T18:01:54.731Z,99596.41
2022-10-12T18:04:23.738Z,99596.34
2022-10-12T18:06:52.081Z,99598.47
2022-10-12T18:09:20.530Z,99587.72
2022-10-12T18:11:49.221Z,99579.50
2022-10-12T18:14:18.000Z,99585.28
2022-10-12T18:16:46.251Z,99588.38
2022-10-12T18:19:16.243Z,99585.50
2022-10-12T18:21:46.691Z,99570.88
2022-10-12T18:24:20.844Z,99588.66
2022-10-12T18:26:52.628Z,99592.63
2022-10-12T18:29:21.329Z,99589.44
2022-10-12T18:31:49.980Z,99586.88
2022-10-12T18:34:19.495Z,99581.66
2022-10-12T18:36:51.144Z,99585.91
2022-10-12T18:39:21.628Z,99576.56
2022-10-12T18:41:52.433Z,99584.75
2022-10-12T18:44:22.645Z,99589.44
2022-10-12T18:46:51.788Z,99583.34
2022-10-12T18:49:21.857Z,99585.25
2022-10-12T18:51:52.904Z,99589.63
2022-10-12T18:54:22.666Z,99582.38
2022-10-12T18:56:52.568Z,99593.81
2022-10-12T18:59:23.567Z,99597.31
2022-10-12T19:01:52.884Z,99612.75
2022-10-12T19:04:22.933Z,99609.63
2022-10-12T19:06:55.571Z,99606.78
2022-10-12T19:09:25.999Z,99614.44
2022-10-12T19:11:56.048Z,99612.69
2022-10-12T19:14:24.364Z,99597.06
2022-10-12T19:16:53.150Z,99595.66
2022-10-12T19:19:23.196Z,99597.78
2022-10-12T19:21:52.121Z,99609.19
2022-10-12T19:24:20.915Z,99608.03
2022-10-12T19:26:49.755Z,99604.06
2022-10-12T19:29:18.224Z,99609.00
2022-10-12T19:31:52.287Z,99607.03
2022-10-12T19:34:24.352Z,99604.69
2022-10-12T19:36:53.681Z,99611.50
2022-10-12T19:39:24.166Z,99620.41
2022-10-12T19:41:53.391Z,99618.22
2022-10-12T19:44:22.380Z,99606.06
2022-10-12T19:46:53.628Z,99609.41
2022-10-12T19:49:23.723Z,99612.44
2022-10-12T19:51:52.328Z,99612.16
2022-10-12T19:54:22.073Z,99611.69
2022-10-12T19:56:50.397Z,99617.97
2022-10-12T19:59:19.414Z,99618.91
2022-10-12T20:01:48.868Z,99620.31
2022-10-12T20:04:17.391Z,99616.91
2022-10-12T20:06:59.489Z,99614.69
2022-10-12T20:09:27.761Z,99607.66
2022-10-12T20:11:56.425Z,99612.41
2022-10-12T20:14:25.809Z,99609.00
2022-10-12T20:16:54.862Z,99612.75
2022-10-12T20:19:23.546Z,99603.91
2022-10-12T20:21:56.536Z,99596.56
2022-10-12T20:24:24.885Z,99602.78
2022-10-12T20:26:53.556Z,99601.84
2022-10-12T20:29:22.045Z,99609.97
2022-10-12T20:31:51.158Z,99624.22
2022-10-12T20:34:19.450Z,99616.31
2022-10-12T20:36:48.096Z,99621.16
2022-10-12T20:39:18.772Z,99623.94
2022-10-12T20:41:47.543Z,99630.78
2022-10-12T20:44:15.881Z,99621.84
2022-10-12T20:46:48.990Z,99623.91
2022-10-12T20:49:17.109Z,99636.81
2022-10-12T20:51:46.043Z,99644.94
2022-10-12T20:54:16.297Z,99624.56
2022-10-12T20:56:48.229Z,99623.16
2022-10-12T20:59:16.701Z,99622.66
2022-10-12T21:01:45.664Z,99629.53
2022-10-12T21:04:14.089Z,99628.28
2022-10-12T21:06:43.134Z,99629.13
2022-10-12T21:09:15.520Z,99642.22
2022-10-12T21:11:44.955Z,99632.63
2022-10-12T21:14:15.621Z,99626.88
2022-10-12T21:16:44.194Z,99622.31
2022-10-12T21:19:15.911Z,99631.50
2022-10-12T21:21:45.309Z,99627.81
2022-10-12T21:24:15.377Z,99625.66
2022-10-12T21:26:43.967Z,99627.25
2022-10-12T21:29:12.592Z,99611.50
2022-10-12T21:31:42.683Z,99622.78
2022-10-12T21:34:12.715Z,99617.00
2022-10-12T21:36:41.156Z,99604.59
2022-10-12T21:39:12.200Z,99605.22
2022-10-12T21:41:43.213Z,99607.69
2022-10-12T21:44:11.993Z,99612.44
2022-10-12T21:46:42.549Z,99606.81
2022-10-12T21:49:13.020Z,99608.94
2022-10-12T21:51:41.653Z,99601.13
2022-10-12T21:54:12.690Z,99605.44
2022-10-12T21:56:42.440Z,99604.28
2022-10-12T21:59:11.455Z,99601.50
2022-10-12T22:01:43.206Z,99602.66
2022-10-12T22:04:15.894Z,99604.38
2022-10-12T22:06:44.650Z,99610.09
2022-10-12T22:09:16.930Z,99617.34
2022-10-12T22:11:46.214Z,99609.94
2022-10-12T22:14:22.060Z,99611.38
2022-10-12T22:16:52.301Z,99615.84
2022-10-12T22:19:22.619Z,99611.63
2022-10-12T22:22:00.125Z,99608.31
2022-10-12T22:24:30.664Z,99611.81
2022-10-12T22:26:59.113Z,99598.66
2022-10-12T22:29:27.598Z,99600.72
2022-10-12T22:31:57.734Z,99597.50
2022-10-12T22:34:26.835Z,99596.97
2022-10-12T22:36:55.229Z,99591.09
2022-10-12T22:39:23.530Z,99594.84
2022-10-12T22:41:51.790Z,99604.75
2022-10-12T22:44:20.384Z,99611.94
2022-10-12T22:46:49.097Z,99608.41
2022-10-12T22:49:20.698Z,99613.63
2022-10-12T22:51:49.459Z,99610.75
2022-10-12T22:54:17.966Z,99615.56
2022-10-12T22:56:46.661Z,99618.59
2022-10-12T22:59:16.430Z,99623.47
2022-10-12T23:01:45.378Z,99625.09
2022-10-12T23:04:16.796Z,99622.84
2022-10-12T23:06:47.051Z,99623.47
2022-10-12T23:09:16.814Z,99619.34
2022-10-12T23:11:45.248Z,99627.91
2022-10-12T23:14:14.793Z,99626.75
2022-10-12T23:16:43.513Z,99629.63
2022-10-12T23:19:11.846Z,99630.16
2022-10-12T23:21:40.179Z,99632.56
2022-10-12T23:24:11.416Z,99632.03
2022-10-12T23:26:39.762Z,99637.69
2022-10-12T23:29:11.074Z,99632.84
2022-10-12T23:31:40.020Z,99626.16
2022-10-12T23:34:09.578Z,99621.31
2022-10-12T23:36:38.718Z,99608.69
2022-10-12T23:39:07.608Z,99609.28
2022-10-12T23:41:37.304Z,99597.41
2022-10-12T23:44:06.287Z,99597.72
2022-10-12T23:46:34.819Z,99583.22
2022-10-12T23:49:03.361Z,99593.91
2022-10-12T23:51:31.767Z,99606.38
2022-10-12T23:54:00.392Z,99602.97
2022-10-12T23:56:29.191Z,99590.59
2022-10-12T23:58:59.285Z,99585.72
